Time;durP1;ratioP1;P1;durP2;ratioP2;P2;SDS_P1;SDS_P2;PMS_P1;PMS_P2;Temp;Humidity;BMP_temperature;BMP_pressure;BME280_temperature;BME280_humidity;BME280_pressure;Samples;Min_cycle;Max_cycle;Signal;HPM_P1;HPM_P2
2023/03/21 00:00:41;;;;;;;2.22;0.30;;;2.00;99.90;;;;;;4836217;29;20085;-67
2023/03/21 00:03:09;;;;;;;0.32;0.30;;;2.00;99.90;;;;;;4838387;29;20608;-64
2023/03/21 00:05:48;;;;;;;1.33;0.40;;;2.00;99.90;;;;;;4839773;29;20064;-68
2023/03/21 00:08:15;;;;;;;1.20;0.60;;;2.00;99.90;;;;;;4840914;29;20553;-64
2023/03/21 00:10:43;;;;;;;0.85;0.30;;;1.90;99.90;;;;;;4840788;29;20045;-66
2023/03/21 00:13:14;;;;;;;1.17;0.47;;;1.90;99.90;;;;;;4838420;29;20133;-65
2023/03/21 00:15:53;;;;;;;1.13;0.45;;;1.90;99.90;;;;;;4846747;29;20069;-65
2023/03/21 00:18:41;;;;;;;3.22;0.93;;;1.90;99.90;;;;;;4843902;29;20565;-64
2023/03/21 00:21:15;;;;;;;2.20;0.50;;;2.00;99.90;;;;;;4845155;29;20145;-63
2023/03/21 00:24:02;;;;;;;2.97;0.52;;;1.90;99.90;;;;;;4844628;29;20054;-66
2023/03/21 00:26:29;;;;;;;4.70;0.55;;;2.00;99.90;;;;;;4847230;29;20121;-65
2023/03/21 00:28:56;;;;;;;1.85;0.57;;;1.90;99.90;;;;;;4847307;29;20049;-66
2023/03/21 00:31:23;;;;;;;1.00;0.90;;;1.90;99.90;;;;;;4845113;29;20507;-66
2023/03/21 00:33:50;;;;;;;1.80;0.80;;;1.90;99.90;;;;;;4846282;29;20742;-64
2023/03/21 00:36:17;;;;;;;0.77;0.52;;;1.90;99.90;;;;;;4841448;29;20093;-64
2023/03/21 00:38:44;;;;;;;0.82;0.75;;;1.90;99.90;;;;;;4844548;29;20071;-69
2023/03/21 00:41:13;;;;;;;0.28;0.25;;;1.80;99.90;;;;;;4845365;29;20114;-63
2023/03/21 00:44:01;;;;;;;1.17;0.55;;;1.80;99.90;;;;;;4847595;29;20076;-64
2023/03/21 00:46:27;;;;;;;2.50;0.43;;;1.80;99.90;;;;;;4846043;29;20253;-66
2023/03/21 00:49:08;;;;;;;1.35;0.35;;;1.80;99.90;;;;;;4843977;29;20057;-63
2023/03/21 00:51:35;;;;;;;0.25;0.25;;;1.80;99.90;;;;;;4839987;29;20062;-66
2023/03/21 00:54:04;;;;;;;0.30;0.30;;;1.80;99.90;;;;;;4861686;29;20189;-63
2023/03/21 00:56:31;;;;;;;1.58;0.40;;;1.70;99.90;;;;;;4841553;29;20161;-68
2023/03/21 00:58:58;;;;;;;0.85;0.52;;;1.70;99.90;;;;;;4847412;29;20145;-66
2023/03/21 01:01:30;;;;;;;0.45;0.20;;;1.70;99.90;;;;;;4844475;29;20054;-63
2023/03/21 01:04:03;;;;;;;0.75;0.75;;;1.60;99.90;;;;;;4846121;29;20054;-68
2023/03/21 01:06:38;;;;;;;1.45;0.30;;;1.60;99.90;;;;;;4850004;29;20053;-63
2023/03/21 01:09:17;;;;;;;0.85;0.47;;;1.60;99.90;;;;;;4843825;29;20141;-67
2023/03/21 01:11:44;;;;;;;1.38;0.57;;;1.60;99.90;;;;;;4847570;29;20168;-68
2023/03/21 01:14:13;;;;;;;0.38;0.38;;;1.60;99.90;;;;;;4841620;29;20148;-66
2023/03/21 01:16:50;;;;;;;0.73;0.20;;;1.50;99.90;;;;;;4845698;29;20066;-68
2023/03/21 01:19:18;;;;;;;0.50;0.50;;;1.50;99.90;;;;;;4845836;29;20096;-64
2023/03/21 01:22:05;;;;;;;0.45;0.35;;;1.50;99.90;;;;;;4858288;29;20133;-64
2023/03/21 01:24:32;;;;;;;0.60;0.20;;;1.50;99.90;;;;;;4845536;29;20143;-62
2023/03/21 01:27:03;;;;;;;1.85;0.40;;;1.50;99.90;;;;;;4846898;29;20053;-68
2023/03/21 01:29:30;;;;;;;3.22;0.80;;;1.50;99.90;;;;;;4865159;29;20084;-63
2023/03/21 01:31:57;;;;;;;4.28;0.80;;;1.50;99.90;;;;;;4846546;29;20741;-68
2023/03/21 01:34:25;;;;;;;1.20;0.57;;;1.50;99.90;;;;;;4847144;29;20053;-64
2023/03/21 01:36:51;;;;;;;1.08;0.22;;;1.50;99.90;;;;;;4847594;29;20057;-64
2023/03/21 01:39:20;;;;;;;0.40;0.20;;;1.50;99.90;;;;;;4847746;29;20072;-67
2023/03/21 01:41:48;;;;;;;0.70;0.50;;;1.50;99.90;;;;;;4843173;29;20054;-66
2023/03/21 01:44:21;;;;;;;5.40;0.45;;;1.50;99.90;;;;;;4843364;29;20389;-63
2023/03/21 01:46:51;;;;;;;1.90;0.20;;;1.50;99.90;;;;;;4857020;29;20054;-66
2023/03/21 01:49:50;;;;;;;0.70;0.52;;;1.50;99.90;;;;;;4842321;29;20054;-64
2023/03/21 01:52:31;;;;;;;1.00;0.55;;;1.50;99.90;;;;;;4857328;29;20523;-62
2023/03/21 01:55:12;;;;;;;0.98;0.52;;;1.60;99.90;;;;;;4842849;29;20145;-65
2023/03/21 01:57:57;;;;;;;4.57;0.55;;;1.50;99.90;;;;;;4855718;29;20057;-65
2023/03/21 02:00:56;;;;;;;0.63;0.40;;;1.50;99.90;;;;;;4854921;29;20164;-65
2023/03/21 02:03:36;;;;;;;2.28;0.50;;;1.50;99.90;;;;;;4857298;29;20165;-62
2023/03/21 02:06:34;;;;;;;1.40;0.77;;;1.50;99.90;;;;;;4840853;29;20849;-69
2023/03/21 02:09:13;;;;;;;0.40;0.30;;;1.50;99.90;;;;;;4837616;29;20128;-65
2023/03/21 02:11:45;;;;;;;0.95;0.25;;;1.50;99.90;;;;;;4843381;29;20052;-64
2023/03/21 02:14:15;;;;;;;0.50;0.45;;;1.50;99.90;;;;;;4840239;29;20049;-63
2023/03/21 02:17:02;;;;;;;0.63;0.52;;;1.50;99.90;;;;;;4841255;29;20136;-66
2023/03/21 02:20:07;;;;;;;1.40;0.40;;;1.50;99.90;;;;;;4856594;29;20068;-63
2023/03/21 02:22:46;;;;;;;1.92;0.47;;;1.50;99.90;;;;;;4842674;29;20053;-63
2023/03/21 02:25:34;;;;;;;3.35;0.55;;;1.40;99.90;;;;;;4846212;29;20156;-65
2023/03/21 02:28:23;;;;;;;1.70;0.38;;;1.50;99.90;;;;;;4843384;29;20056;-66
2023/03/21 02:31:05;;;;;;;0.40;0.30;;;1.50;99.90;;;;;;4857975;29;20156;-67
2023/03/21 02:34:00;;;;;;;1.35;1.25;;;1.50;99.90;;;;;;4842254;29;20053;-62
2023/03/21 02:36:47;;;;;;;1.88;0.32;;;1.50;99.90;;;;;;4854842;29;20144;-65
2023/03/21 02:39:35;;;;;;;4.43;0.40;;;1.50;99.90;;;;;;4840684;29;20110;-64
2023/03/21 02:42:15;;;;;;;1.15;0.80;;;1.50;99.90;;;;;;4842571;29;20140;-68
2023/03/21 02:44:56;;;;;;;0.82;0.30;;;1.50;99.90;;;;;;4855555;29;20053;-63
2023/03/21 02:47:33;;;;;;;1.02;0.40;;;1.50;99.90;;;;;;4853631;29;20054;-65
2023/03/21 02:50:08;;;;;;;2.05;0.50;;;1.50;99.90;;;;;;4856191;29;20061;-67
2023/03/21 02:52:37;;;;;;;2.75;0.43;;;1.50;99.90;;;;;;4852175;29;20046;-65
2023/03/21 02:55:30;;;;;;;1.27;0.35;;;1.50;99.90;;;;;;4839778;29;20068;-66
2023/03/21 02:58:02;;;;;;;2.80;0.50;;;1.40;99.90;;;;;;4839087;29;20089;-67
2023/03/21 03:00:43;;;;;;;0.45;0.13;;;1.40;99.90;;;;;;4834065;29;20145;-66
2023/03/21 03:03:13;;;;;;;1.90;0.43;;;1.40;99.90;;;;;;4857787;29;20054;-66
2023/03/21 03:06:00;;;;;;;1.23;0.35;;;1.40;99.90;;;;;;4855409;29;20689;-65
2023/03/21 03:09:06;;;;;;;2.10;0.22;;;1.40;99.90;;;;;;4857273;29;20061;-64
2023/03/21 03:11:38;;;;;;;0.98;0.25;;;1.40;99.90;;;;;;4840544;29;20563;-65
2023/03/21 03:14:33;;;;;;;0.93;0.20;;;1.40;99.90;;;;;;4841180;29;20222;-62
2023/03/21 03:17:56;;;;;;;0.20;0.10;;;1.40;99.90;;;;;;4826916;29;20435;-64
2023/03/21 03:20:45;;;;;;;0.75;0.50;;;1.40;99.90;;;;;;4832939;29;20503;-63
2023/03/21 03:23:27;;;;;;;0.65;0.30;;;1.40;99.90;;;;;;4843010;29;20054;-63
2023/03/21 03:26:10;;;;;;;7.82;0.60;;;1.40;99.90;;;;;;4842980;29;20776;-64
2023/03/21 03:28:43;;;;;;;0.93;0.20;;;1.40;99.90;;;;;;4836971;29;20448;-65
2023/03/21 03:31:20;;;;;;;0.82;0.40;;;1.40;99.90;;;;;;4840683;29;20053;-64
2023/03/21 03:33:55;;;;;;;0.80;0.30;;;1.40;99.90;;;;;;4841829;29;20068;-66
2023/03/21 03:36:28;;;;;;;0.57;0.28;;;1.40;99.90;;;;;;4856749;29;20065;-63
2023/03/21 03:39:07;;;;;;;0.65;0.32;;;1.40;99.90;;;;;;4838261;29;20053;-64
2023/03/21 03:41:45;;;;;;;0.57;0.40;;;1.40;99.90;;;;;;4842056;29;20065;-65
2023/03/21 03:44:36;;;;;;;1.70;0.30;;;1.40;99.90;;;;;;4850513;29;20129;-63
2023/03/21 03:47:21;;;;;;;0.40;0.40;;;1.50;99.90;;;;;;4841561;29;20081;-65
2023/03/21 03:50:09;;;;;;;0.60;0.40;;;1.50;99.90;;;;;;4844453;29;20144;-66
2023/03/21 03:52:49;;;;;;;0.22;0.20;;;1.50;99.90;;;;;;4836944;29;20070;-63
2023/03/21 03:55:33;;;;;;;0.57;0.20;;;1.50;99.90;;;;;;4860709;29;20065;-64
2023/03/21 03:58:06;;;;;;;0.88;0.40;;;1.50;99.90;;;;;;4855357;29;20535;-63
2023/03/21 04:00:48;;;;;;;0.28;0.22;;;1.50;99.90;;;;;;4858646;29;20054;-66
2023/03/21 04:03:15;;;;;;;0.50;0.40;;;1.50;99.90;;;;;;4844656;29;20050;-63
2023/03/21 04:05:45;;;;;;;1.00;0.50;;;1.50;99.90;;;;;;4848189;29;20061;-65
2023/03/21 04:08:14;;;;;;;0.88;0.35;;;1.50;99.90;;;;;;4846979;29;20069;-64
2023/03/21 04:10:45;;;;;;;0.77;0.30;;;1.50;99.90;;;;;;4837928;29;20061;-66
2023/03/21 04:13:12;;;;;;;1.17;0.22;;;1.50;99.90;;;;;;4856333;29;20049;-66
2023/03/21 04:15:58;;;;;;;0.20;0.20;;;1.50;99.90;;;;;;4841481;29;20061;-63
2023/03/21 04:18:26;;;;;;;1.38;0.55;;;1.50;99.90;;;;;;4854507;29;20065;-67
2023/03/21 04:20:53;;;;;;;0.30;0.30;;;1.50;99.90;;;;;;4853060;29;20062;-66
2023/03/21 04:23:20;;;;;;;0.00;0.00;;;1.50;99.90;;;;;;4855716;29;20050;-65
2023/03/21 04:25:49;;;;;;;0.95;0.40;;;1.50;99.90;;;;;;4843885;29;20054;-66
2023/03/21 04:28:32;;;;;;;3.17;0.50;;;1.50;99.90;;;;;;4839637;29;20419;-63
2023/03/21 04:31:18;;;;;;;1.80;0.73;;;1.60;99.90;;;;;;4845230;29;20172;-62
2023/03/21 04:34:02;;;;;;;0.50;0.50;;;1.60;99.90;;;;;;4853581;29;20068;-66
2023/03/21 04:36:37;;;;;;;0.43;0.32;;;1.60;99.90;;;;;;4840184;29;20066;-63
2023/03/21 04:39:11;;;;;;;0.52;0.52;;;1.60;99.90;;;;;;4844312;29;20053;-64
2023/03/21 04:41:41;;;;;;;0.20;0.20;;;1.60;99.90;;;;;;4838589;29;20064;-62
2023/03/21 04:44:09;;;;;;;2.35;1.00;;;1.70;99.90;;;;;;4854456;29;20175;-66
2023/03/21 04:46:36;;;;;;;2.28;0.60;;;1.70;99.90;;;;;;4841764;29;20157;-66
2023/03/21 04:49:05;;;;;;;1.35;0.38;;;1.60;99.90;;;;;;4846548;29;20443;-63
2023/03/21 04:51:33;;;;;;;0.50;0.50;;;1.60;99.90;;;;;;4841466;29;20100;-68
2023/03/21 04:54:01;;;;;;;0.90;0.40;;;1.60;99.90;;;;;;4838102;29;20053;-66
2023/03/21 04:56:32;;;;;;;0.45;0.45;;;1.60;99.90;;;;;;4838889;29;20117;-65
2023/03/21 04:59:04;;;;;;;4.20;0.77;;;1.60;99.90;;;;;;4839550;29;20076;-65
2023/03/21 05:01:31;;;;;;;0.88;0.47;;;1.60;99.90;;;;;;4839505;29;20045;-65
2023/03/21 05:04:00;;;;;;;0.95;0.52;;;1.70;99.90;;;;;;4846363;29;20149;-65
2023/03/21 05:06:30;;;;;;;1.13;0.50;;;1.70;99.90;;;;;;4853710;29;20061;-62
2023/03/21 05:09:00;;;;;;;1.67;0.90;;;1.70;99.90;;;;;;4849329;29;20748;-64
2023/03/21 05:11:29;;;;;;;1.80;0.93;;;1.70;99.90;;;;;;4843875;29;20045;-64
2023/03/21 05:14:00;;;;;;;2.63;0.90;;;1.70;99.90;;;;;;4848716;29;20053;-64
2023/03/21 05:16:29;;;;;;;1.60;0.70;;;1.70;99.90;;;;;;4843780;29;20057;-63
2023/03/21 05:18:58;;;;;;;1.35;0.50;;;1.70;99.90;;;;;;4856052;29;20054;-67
2023/03/21 05:21:28;;;;;;;2.55;0.40;;;1.70;99.90;;;;;;4862915;29;20045;-67
2023/03/21 05:23:57;;;;;;;2.13;1.08;;;1.70;99.90;;;;;;4859999;29;20049;-68
2023/03/21 05:26:24;;;;;;;0.52;0.47;;;1.70;99.90;;;;;;4846058;29;20378;-62
2023/03/21 05:28:58;;;;;;;2.47;0.50;;;1.70;99.90;;;;;;4840960;29;20058;-63
2023/03/21 05:31:25;;;;;;;1.23;0.80;;;1.70;99.90;;;;;;4848613;29;20057;-65
2023/03/21 05:34:03;;;;;;;2.97;0.73;;;1.70;99.90;;;;;;4859036;29;20049;-63
2023/03/21 05:36:32;;;;;;;5.53;0.98;;;1.70;99.90;;;;;;4845110;29;20142;-63
2023/03/21 05:39:04;;;;;;;1.25;0.47;;;1.70;99.90;;;;;;4842811;29;20223;-63
2023/03/21 05:41:34;;;;;;;2.03;1.23;;;1.70;99.90;;;;;;4847272;29;20488;-65
2023/03/21 05:44:03;;;;;;;0.68;0.68;;;1.70;99.90;;;;;;4859654;29;20049;-66
2023/03/21 05:46:30;;;;;;;3.05;1.02;;;1.70;99.90;;;;;;4847593;29;20795;-64
2023/03/21 05:48:57;;;;;;;0.77;0.60;;;1.80;99.90;;;;;;4843303;29;20108;-65
2023/03/21 05:51:24;;;;;;;2.10;0.40;;;1.80;99.90;;;;;;4845785;29;20057;-66
2023/03/21 05:53:51;;;;;;;3.22;0.63;;;1.80;99.90;;;;;;4845131;29;20049;-68
2023/03/21 05:56:20;;;;;;;4.93;1.05;;;1.80;99.90;;;;;;4840348;29;20065;-63
2023/03/21 05:58:53;;;;;;;1.63;0.65;;;1.80;99.90;;;;;;4845442;29;20516;-69
2023/03/21 06:01:22;;;;;;;1.58;0.73;;;1.80;99.90;;;;;;4844782;29;20054;-65
2023/03/21 06:04:02;;;;;;;2.80;0.65;;;1.90;99.90;;;;;;4846586;29;20072;-64
2023/03/21 06:06:29;;;;;;;0.35;0.35;;;1.90;99.90;;;;;;4845443;29;20821;-63
2023/03/21 06:09:00;;;;;;;;;;;1.90;99.90;;;;;;4858528;29;20364;-62
2023/03/21 06:11:30;;;;;;;2.38;0.77;;;1.90;99.90;;;;;;4847213;29;19932;-64
2023/03/21 06:14:19;;;;;;;1.35;0.40;;;1.90;99.90;;;;;;4844180;29;20110;-64
2023/03/21 06:17:02;;;;;;;3.45;0.73;;;1.90;99.90;;;;;;4839962;29;20045;-62
2023/03/21 06:19:30;;;;;;;3.28;0.80;;;1.90;99.90;;;;;;4848081;29;20061;-64
2023/03/21 06:22:07;;;;;;;5.00;0.70;;;1.90;99.90;;;;;;4842846;29;20085;-63
2023/03/21 06:24:37;;;;;;;0.88;0.40;;;1.90;99.90;;;;;;4839316;29;20046;-67
2023/03/21 06:27:04;;;;;;;1.95;0.50;;;1.90;99.90;;;;;;4846522;29;20069;-67
2023/03/21 06:29:45;;;;;;;0.93;0.50;;;1.90;99.90;;;;;;4859385;29;20056;-62
2023/03/21 06:32:12;;;;;;;5.53;1.02;;;1.90;99.90;;;;;;4845345;29;20046;-66
2023/03/21 06:34:39;;;;;;;3.15;0.73;;;1.90;99.90;;;;;;4835382;29;20054;-66
2023/03/21 06:37:08;;;;;;;4.95;1.27;;;1.90;99.90;;;;;;4838150;29;20163;-68
2023/03/21 06:39:36;;;;;;;4.25;0.60;;;2.00;99.90;;;;;;4846276;29;20053;-68
2023/03/21 06:42:03;;;;;;;0.85;0.68;;;2.00;99.90;;;;;;4844164;29;20143;-64
2023/03/21 06:44:30;;;;;;;5.28;0.80;;;2.00;99.90;;;;;;4841666;29;20053;-64
2023/03/21 06:47:02;;;;;;;3.10;1.23;;;2.00;99.90;;;;;;4855752;29;20049;-67
2023/03/21 06:49:29;;;;;;;4.82;1.40;;;2.00;99.90;;;;;;4841649;29;20053;-65
2023/03/21 06:52:04;;;;;;;21.75;4.10;;;2.00;99.90;;;;;;4838528;29;20089;-64
2023/03/21 06:54:31;;;;;;;6.22;1.60;;;2.00;99.90;;;;;;4838766;29;20394;-66
2023/03/21 06:57:02;;;;;;;6.70;1.42;;;2.00;99.90;;;;;;4835838;29;20057;-64
2023/03/21 06:59:32;;;;;;;9.60;1.10;;;1.90;99.90;;;;;;4839039;29;20136;-63
2023/03/21 07:02:02;;;;;;;8.55;2.13;;;2.00;99.90;;;;;;4856026;29;20506;-66
2023/03/21 07:04:32;;;;;;;3.92;1.13;;;2.00;99.90;;;;;;4850773;29;20053;-68
2023/03/21 07:06:58;;;;;;;12.07;0.90;;;2.10;99.90;;;;;;4843711;29;20064;-66
2023/03/21 07:09:27;;;;;;;4.45;1.27;;;2.00;99.90;;;;;;4842706;29;20050;-64
2023/03/21 07:11:57;;;;;;;4.45;2.50;;;2.00;99.90;;;;;;4844051;29;20064;-64
2023/03/21 07:14:33;;;;;;;10.50;2.55;;;2.10;99.90;;;;;;4839465;29;20105;-66
2023/03/21 07:17:00;;;;;;;9.10;1.00;;;2.10;99.90;;;;;;4844889;29;20070;-67
2023/03/21 07:19:28;;;;;;;3.58;0.95;;;2.20;99.90;;;;;;4835581;29;20049;-67
2023/03/21 07:21:55;;;;;;;3.50;0.85;;;2.20;99.90;;;;;;4842012;29;20053;-64
2023/03/21 07:24:22;;;;;;;1.13;0.40;;;2.20;99.90;;;;;;4838506;29;21040;-67
2023/03/21 07:26:48;;;;;;;1.85;0.45;;;2.20;99.90;;;;;;4838901;29;20045;-65
2023/03/21 07:29:16;;;;;;;7.28;1.40;;;2.20;99.90;;;;;;4840749;29;20152;-65
2023/03/21 07:31:43;;;;;;;5.32;1.33;;;2.20;99.90;;;;;;4838395;29;20305;-64
2023/03/21 07:34:10;;;;;;;16.77;1.45;;;2.20;99.90;;;;;;4842690;29;20278;-66
2023/03/21 07:36:38;;;;;;;7.25;1.30;;;2.20;99.90;;;;;;4852587;29;20148;-66
2023/03/21 07:39:06;;;;;;;4.90;0.65;;;2.30;99.90;;;;;;4839159;29;20050;-63
2023/03/21 07:41:33;;;;;;;8.77;1.23;;;2.30;99.90;;;;;;4840071;29;20499;-66
2023/03/21 07:44:11;;;;;;;0.68;0.28;;;2.30;99.90;;;;;;4854013;29;20073;-66
2023/03/21 07:46:38;;;;;;;3.92;0.73;;;2.30;99.90;;;;;;4840841;29;20054;-65
2023/03/21 07:49:05;;;;;;;1.40;0.30;;;2.30;99.90;;;;;;4843018;29;20148;-65
2023/03/21 07:51:34;;;;;;;2.10;0.60;;;2.20;99.90;;;;;;4856702;29;20057;-64
2023/03/21 07:54:01;;;;;;;3.90;0.40;;;2.30;99.90;;;;;;4842239;29;20138;-66
2023/03/21 07:56:28;;;;;;;1.73;0.95;;;2.50;99.90;;;;;;4842180;29;20494;-65
2023/03/21 07:58:55;;;;;;;9.98;1.30;;;2.50;99.90;;;;;;4837096;29;20064;-66
2023/03/21 08:01:22;;;;;;;0.73;0.30;;;2.50;99.90;;;;;;4842482;29;20064;-64
2023/03/21 08:03:50;;;;;;;1.00;0.28;;;2.60;99.90;;;;;;4841000;29;20415;-69
2023/03/21 08:06:17;;;;;;;1.02;0.40;;;2.70;99.90;;;;;;4840210;29;20095;-66
2023/03/21 08:08:43;;;;;;;1.92;0.85;;;2.70;99.90;;;;;;4840066;29;20136;-67
2023/03/21 08:11:11;;;;;;;2.20;0.30;;;2.80;99.90;;;;;;4840777;29;20879;-67
2023/03/21 08:13:38;;;;;;;3.05;0.50;;;2.80;99.90;;;;;;4841536;29;20049;-66
2023/03/21 08:16:06;;;;;;;1.83;0.47;;;2.80;99.90;;;;;;4839979;29;20088;-66
2023/03/21 08:18:33;;;;;;;8.27;0.68;;;2.90;99.90;;;;;;4836643;29;20168;-65
2023/03/21 08:21:00;;;;;;;6.80;0.50;;;2.90;99.90;;;;;;4838179;29;20478;-64
2023/03/21 08:23:28;;;;;;;2.75;0.45;;;2.90;99.90;;;;;;4840053;29;20070;-68
2023/03/21 08:25:56;;;;;;;0.73;0.73;;;3.10;99.90;;;;;;4841115;29;20144;-65
2023/03/21 08:28:23;;;;;;;2.13;0.57;;;3.00;99.90;;;;;;4841374;29;20057;-63
2023/03/21 08:30:50;;;;;;;3.55;0.80;;;3.10;99.90;;;;;;4840045;29;20050;-66
2023/03/21 08:33:17;;;;;;;1.02;0.40;;;3.10;99.90;;;;;;4841059;29;20061;-69
2023/03/21 08:35:45;;;;;;;2.00;0.45;;;2.90;99.90;;;;;;4837868;29;20066;-64
2023/03/21 08:38:12;;;;;;;1.00;0.35;;;3.00;99.90;;;;;;4840421;29;20526;-64
2023/03/21 08:40:40;;;;;;;1.85;0.85;;;3.10;99.90;;;;;;4839958;29;20083;-64
2023/03/21 08:43:07;;;;;;;1.67;0.40;;;3.10;99.90;;;;;;4841908;29;20195;-66
2023/03/21 08:45:34;;;;;;;4.63;1.02;;;3.00;99.90;;;;;;4845361;29;20053;-67
2023/03/21 08:48:00;;;;;;;2.97;0.57;;;3.00;99.90;;;;;;4844515;29;20053;-66
2023/03/21 08:50:30;;;;;;;4.07;0.70;;;2.90;99.90;;;;;;4847990;29;20113;-65
2023/03/21 08:52:57;;;;;;;2.13;0.83;;;3.00;99.90;;;;;;4844443;29;20136;-67
2023/03/21 08:55:24;;;;;;;2.67;0.57;;;2.80;99.90;;;;;;4846656;29;20376;-63
2023/03/21 08:57:51;;;;;;;1.98;0.47;;;2.80;99.90;;;;;;4839528;29;20050;-70
2023/03/21 09:00:19;;;;;;;2.08;0.80;;;2.80;99.90;;;;;;4845992;29;20065;-63
2023/03/21 09:02:50;;;;;;;0.93;0.30;;;2.90;99.90;;;;;;4843023;29;20098;-67
2023/03/21 09:05:17;;;;;;;9.35;3.47;;;2.90;99.90;;;;;;4835954;29;20062;-64
2023/03/21 09:07:45;;;;;;;5.97;2.03;;;3.00;99.90;;;;;;4843574;29;20434;-67
2023/03/21 09:10:17;;;;;;;2.45;1.05;;;3.00;99.90;;;;;;4845334;29;20478;-66
2023/03/21 09:12:50;;;;;;;3.13;0.20;;;3.00;99.90;;;;;;4841986;29;20049;-68
2023/03/21 09:15:20;;;;;;;2.92;0.68;;;3.10;99.90;;;;;;4847086;29;20067;-65
2023/03/21 09:17:51;;;;;;;1.90;0.50;;;3.20;99.90;;;;;;4844980;29;20049;-68
2023/03/21 09:20:29;;;;;;;3.10;0.70;;;3.20;99.90;;;;;;4844772;29;20778;-63
2023/03/21 09:22:58;;;;;;;3.22;0.50;;;3.30;99.90;;;;;;4842590;29;20063;-63
2023/03/21 09:25:28;;;;;;;3.72;0.30;;;3.30;99.90;;;;;;4845235;29;20057;-67
2023/03/21 09:27:56;;;;;;;6.88;0.80;;;3.10;99.90;;;;;;4847515;29;20061;-67
2023/03/21 09:30:24;;;;;;;3.17;0.40;;;3.10;99.90;;;;;;4843074;29;20145;-64
2023/03/21 09:32:54;;;;;;;0.32;0.30;;;3.20;99.90;;;;;;4838861;29;20062;-68
2023/03/21 09:35:21;;;;;;;11.85;1.30;;;3.20;99.90;;;;;;4840331;29;20049;-65
2023/03/21 09:37:48;;;;;;;8.65;1.00;;;3.30;99.90;;;;;;4844113;29;20052;-66
2023/03/21 09:40:18;;;;;;;2.55;0.80;;;3.40;99.90;;;;;;4846376;29;20150;-68
2023/03/21 09:42:58;;;;;;;2.38;0.32;;;3.20;99.90;;;;;;4842730;29;20822;-65
2023/03/21 09:46:01;;;;;;;1.97;0.90;;;3.20;99.90;;;;;;4847190;29;20416;-65
2023/03/21 09:48:56;;;;;;;4.75;0.80;;;3.30;99.90;;;;;;4830567;29;20315;-65
2023/03/21 09:51:33;;;;;;;2.45;0.25;;;3.40;99.90;;;;;;4836091;29;20050;-63
2023/03/21 09:54:07;;;;;;;3.20;0.43;;;3.30;99.90;;;;;;4851544;29;20053;-65
2023/03/21 09:56:37;;;;;;;8.65;1.73;;;3.30;99.90;;;;;;4839414;29;20053;-67
2023/03/21 09:59:07;;;;;;;11.93;3.63;;;3.40;99.90;;;;;;4841481;29;20362;-66
2023/03/21 10:01:40;;;;;;;;;;;3.50;99.90;;;;;;4846783;29;20049;-65
2023/03/21 10:04:12;;;;;;;2.30;0.35;;;3.50;99.90;;;;;;4846264;29;20286;-63
2023/03/21 10:06:41;;;;;;;0.57;0.40;;;3.60;99.90;;;;;;4842113;29;20144;-63
2023/03/21 10:09:23;;;;;;;3.10;0.45;;;3.50;99.90;;;;;;4844905;29;20149;-66
2023/03/21 10:11:55;;;;;;;5.20;0.50;;;3.60;99.90;;;;;;4845299;29;20045;-66
2023/03/21 10:14:39;;;;;;;4.43;0.60;;;3.50;99.90;;;;;;4840350;29;20073;-63
2023/03/21 10:17:33;;;;;;;2.17;0.40;;;3.60;99.90;;;;;;4840284;29;20461;-63
2023/03/21 10:20:21;;;;;;;5.45;0.50;;;3.80;99.90;;;;;;4846374;29;20068;-66
2023/03/21 10:22:54;;;;;;;3.47;0.30;;;3.90;99.90;;;;;;4840343;29;20515;-70
2023/03/21 10:25:31;;;;;;;1.95;0.50;;;4.00;99.90;;;;;;4845187;29;20058;-63
2023/03/21 10:28:00;;;;;;;1.75;0.40;;;4.20;99.90;;;;;;4842977;29;20065;-68
2023/03/21 10:30:45;;;;;;;5.03;0.50;;;4.20;99.90;;;;;;4843500;29;20516;-63
2023/03/21 10:33:15;;;;;;;5.50;0.82;;;4.30;99.90;;;;;;4840676;29;20141;-66
2023/03/21 10:35:49;;;;;;;5.57;1.70;;;4.30;99.90;;;;;;4843643;29;20059;-63
2023/03/21 10:38:19;;;;;;;1.42;0.40;;;4.20;99.90;;;;;;4839281;29;20061;-62
2023/03/21 10:40:46;;;;;;;0.73;0.65;;;4.00;99.90;;;;;;4855845;29;20079;-63
2023/03/21 10:43:36;;;;;;;17.13;2.05;;;4.00;99.90;;;;;;4841794;29;20564;-64
2023/03/21 10:46:20;;;;;;;1.55;0.70;;;4.20;99.90;;;;;;4847676;29;20085;-64
2023/03/21 10:48:51;;;;;;;3.83;1.10;;;4.30;99.90;;;;;;4843256;29;20060;-66
2023/03/21 10:51:21;;;;;;;3.38;0.95;;;4.00;99.90;;;;;;4844249;29;20092;-62
2023/03/21 10:53:56;;;;;;;3.65;0.63;;;3.80;99.90;;;;;;4843525;29;20053;-69
2023/03/21 10:56:29;;;;;;;0.80;0.80;;;3.80;99.90;;;;;;4838215;29;20056;-69
2023/03/21 10:58:59;;;;;;;5.78;0.70;;;3.90;99.90;;;;;;4842678;29;20110;-63
2023/03/21 11:01:38;;;;;;;3.88;0.80;;;3.90;99.90;;;;;;4840459;29;20060;-66
2023/03/21 11:04:11;;;;;;;1.65;0.70;;;4.00;99.90;;;;;;4843571;29;20113;-66
2023/03/21 11:06:40;;;;;;;3.30;0.95;;;3.80;99.90;;;;;;4842919;29;20049;-63
2023/03/21 11:09:20;;;;;;;4.68;0.80;;;3.80;99.90;;;;;;4841195;29;20137;-63
2023/03/21 11:12:01;;;;;;;2.03;0.70;;;3.80;99.90;;;;;;4847656;29;20157;-66
2023/03/21 11:14:46;;;;;;;0.80;0.68;;;3.70;99.90;;;;;;4845036;29;20085;-64
2023/03/21 11:17:16;;;;;;;5.60;0.90;;;3.70;99.90;;;;;;4842453;29;20084;-67
2023/03/21 11:19:57;;;;;;;2.97;0.65;;;3.70;99.90;;;;;;4846861;29;20063;-65
2023/03/21 11:22:38;;;;;;;3.90;1.20;;;3.80;99.90;;;;;;4844445;29;20045;-65
2023/03/21 11:25:10;;;;;;;6.30;1.20;;;3.70;99.90;;;;;;4846196;29;20152;-65
2023/03/21 11:27:51;;;;;;;9.98;1.17;;;3.80;99.90;;;;;;4843580;29;20075;-64
2023/03/21 11:30:21;;;;;;;0.80;0.80;;;3.90;99.90;;;;;;4842758;29;20061;-64
2023/03/21 11:32:57;;;;;;;1.20;1.05;;;4.00;99.90;;;;;;4842006;29;20553;-67
2023/03/21 11:35:31;;;;;;;2.25;0.90;;;4.20;99.90;;;;;;4841056;29;20141;-67
2023/03/21 11:37:58;;;;;;;5.03;1.60;;;4.20;99.90;;;;;;4840799;29;20049;-68
2023/03/21 11:40:32;;;;;;;1.65;0.68;;;4.20;99.90;;;;;;4843128;29;20053;-65
2023/03/21 11:43:01;;;;;;;3.58;0.95;;;4.20;99.90;;;;;;4858444;29;20100;-63
2023/03/21 11:45:34;;;;;;;5.07;1.40;;;4.10;99.90;;;;;;4847207;29;20049;-63
2023/03/21 11:48:11;;;;;;;1.77;1.15;;;4.00;99.90;;;;;;4833770;29;20058;-66
2023/03/21 11:50:46;;;;;;;4.65;1.33;;;3.90;99.90;;;;;;4841688;29;20046;-64
2023/03/21 11:53:27;;;;;;;3.50;1.50;;;3.90;99.90;;;;;;4838833;29;20549;-66
2023/03/21 11:56:08;;;;;;;7.13;2.03;;;4.10;99.90;;;;;;4837472;29;20508;-64
2023/03/21 11:58:54;;;;;;;2.88;0.80;;;4.20;99.90;;;;;;4842071;29;20053;-63
2023/03/21 12:01:56;;;;;;;3.53;1.38;;;4.40;99.90;;;;;;4842550;29;20133;-66
2023/03/21 12:04:31;;;;;;;4.50;1.20;;;4.50;99.90;;;;;;4845657;29;20058;-64
2023/03/21 12:07:10;;;;;;;6.13;1.05;;;4.70;99.90;;;;;;4839536;29;20148;-70
2023/03/21 12:09:53;;;;;;;6.63;1.45;;;4.60;99.90;;;;;;4842819;29;20061;-64
2023/03/21 12:12:58;;;;;;;2.67;1.45;;;4.60;99.90;;;;;;4840349;29;20077;-68
2023/03/21 12:16:04;;;;;;;1.30;1.20;;;4.60;99.90;;;;;;4818981;29;20065;-67
2023/03/21 12:18:58;;;;;;;2.95;1.35;;;4.70;99.90;;;;;;4847732;29;20050;-64
2023/03/21 12:21:45;;;;;;;3.25;0.95;;;4.60;99.90;;;;;;4842534;29;20148;-67
2023/03/21 12:24:18;;;;;;;8.38;1.58;;;4.40;99.90;;;;;;4839804;29;20084;-64
2023/03/21 12:27:17;;;;;;;4.18;0.93;;;4.40;99.90;;;;;;4845985;29;20054;-70
2023/03/21 12:30:03;;;;;;;5.40;1.25;;;4.60;99.90;;;;;;4843987;29;20500;-68
2023/03/21 12:32:49;;;;;;;3.45;0.82;;;4.50;99.90;;;;;;4846892;29;20415;-69
2023/03/21 12:35:19;;;;;;;4.75;0.60;;;4.40;99.90;;;;;;4840635;29;20138;-66
2023/03/21 12:38:02;;;;;;;0.70;0.60;;;4.40;99.90;;;;;;4846993;29;20145;-64
2023/03/21 12:40:43;;;;;;;0.85;0.30;;;4.20;99.90;;;;;;4844873;29;20654;-67
2023/03/21 12:43:10;;;;;;;;;;;4.10;99.90;;;;;;4845488;29;20110;-65
2023/03/21 12:45:41;;;;;;;1.52;0.68;;;3.90;99.90;;;;;;4845507;29;19964;-65
2023/03/21 12:48:50;;;;;;;4.80;0.98;;;3.80;99.90;;;;;;4843606;29;20492;-65
2023/03/21 12:51:21;;;;;;;12.75;1.73;;;3.80;99.90;;;;;;4845619;29;20160;-64
2023/03/21 12:54:16;;;;;;;2.28;0.30;;;3.90;99.90;;;;;;4844958;29;20140;-67
2023/03/21 12:56:51;;;;;;;3.38;0.60;;;4.00;99.90;;;;;;4838534;29;20046;-65
2023/03/21 12:59:38;;;;;;;0.75;0.40;;;4.10;99.90;;;;;;4843610;29;20063;-63
2023/03/21 13:02:28;;;;;;;4.22;0.47;;;4.10;99.90;;;;;;4846883;29;20045;-64
2023/03/21 13:05:15;;;;;;;2.97;0.88;;;4.10;99.90;;;;;;4844972;29;20487;-65
2023/03/21 13:07:47;;;;;;;3.38;0.40;;;4.10;99.90;;;;;;4844220;29;20148;-64
2023/03/21 13:10:20;;;;;;;3.65;0.68;;;4.20;99.90;;;;;;4847677;29;20057;-67
2023/03/21 13:12:52;;;;;;;1.88;0.60;;;4.00;99.90;;;;;;4842412;29;20075;-70
2023/03/21 13:15:35;;;;;;;6.25;1.40;;;4.00;99.90;;;;;;4848890;29;20299;-66
2023/03/21 13:18:33;;;;;;;8.15;2.70;;;3.90;99.90;;;;;;4842853;29;20126;-64
2023/03/21 13:21:11;;;;;;;5.13;2.05;;;3.90;99.90;;;;;;4845510;29;20125;-65
2023/03/21 13:23:38;;;;;;;4.90;2.65;;;4.00;99.90;;;;;;4841587;29;20152;-67
2023/03/21 13:26:10;;;;;;;16.48;5.40;;;4.00;99.90;;;;;;4850057;29;20114;-64
2023/03/21 13:28:40;;;;;;;1.35;1.13;;;4.00;99.90;;;;;;4838054;29;20065;-68
2023/03/21 13:31:20;;;;;;;6.40;2.25;;;3.90;99.90;;;;;;4844769;29;20057;-64
2023/03/21 13:33:52;;;;;;;9.60;2.47;;;4.00;99.90;;;;;;4840650;29;20054;-69
2023/03/21 13:36:28;;;;;;;2.20;1.40;;;4.00;99.90;;;;;;4841719;29;20093;-65